Time;durP1;ratioP1;P1;durP2;ratioP2;P2;SDS_P1;SDS_P2;PMS_P1;PMS_P2;Temp;Humidity;BMP_temperature;BMP_pressure;BME280_temperature;BME280_humidity;BME280_pressure;Samples;Min_cycle;Max_cycle;Signal;HPM_P1;HPM_P2
2021/08/31 00:00:10;;;;;;;20.10;12.65;;;14.20;99.90;;;;;;6152603;23;20021;-76
2021/08/31 00:02:35;;;;;;;17.20;13.32;;;14.20;99.90;;;;;;6126555;23;20053;-75
2021/08/31 00:05:01;;;;;;;15.18;12.68;;;14.20;99.90;;;;;;6126336;23;20025;-75
2021/08/31 00:07:27;;;;;;;20.20;13.90;;;14.10;99.90;;;;;;6126459;23;20013;-76
2021/08/31 00:09:52;;;;;;;17.25;12.65;;;14.10;99.90;;;;;;6126158;23;20559;-76
2021/08/31 00:12:18;;;;;;;17.15;13.43;;;14.10;99.90;;;;;;6101958;23;20532;-75
2021/08/31 00:14:43;;;;;;;17.92;14.02;;;14.00;99.90;;;;;;6101926;23;20021;-70
2021/08/31 00:17:09;;;;;;;18.67;14.80;;;14.00;99.90;;;;;;6126332;23;20009;-70
2021/08/31 00:19:35;;;;;;;18.60;14.07;;;14.00;99.90;;;;;;6126099;23;20127;-70
2021/08/31 00:22:01;;;;;;;22.70;14.82;;;14.00;99.90;;;;;;6126284;23;20459;-70
2021/08/31 00:24:26;;;;;;;18.58;14.98;;;14.10;99.90;;;;;;6126156;23;20041;-70
2021/08/31 00:26:52;;;;;;;21.30;15.00;;;14.10;99.90;;;;;;6125993;23;20025;-70
2021/08/31 00:29:17;;;;;;;23.17;15.32;;;14.20;99.90;;;;;;6126552;23;20017;-70
2021/08/31 00:31:43;;;;;;;21.08;15.65;;;14.20;99.90;;;;;;6126453;23;20010;-70
2021/08/31 00:34:09;;;;;;;22.52;14.80;;;14.20;99.90;;;;;;6126626;23;20076;-70
2021/08/31 00:36:34;;;;;;;23.27;15.43;;;14.20;99.90;;;;;;6126032;23;20453;-70
2021/08/31 00:39:00;;;;;;;18.30;15.02;;;14.20;99.90;;;;;;6126237;23;20021;-69
2021/08/31 00:41:26;;;;;;;19.23;14.30;;;14.20;99.90;;;;;;6126074;23;20561;-70
2021/08/31 00:43:52;;;;;;;20.23;14.63;;;14.20;99.90;;;;;;6126137;23;20079;-70
2021/08/31 00:46:19;;;;;;;19.45;14.40;;;14.20;99.90;;;;;;6125929;23;20449;-70
2021/08/31 00:48:46;;;;;;;20.95;13.85;;;14.20;99.90;;;;;;6125951;23;20346;-69
2021/08/31 00:51:13;;;;;;;26.25;15.55;;;14.20;99.90;;;;;;6126051;23;20017;-70
2021/08/31 00:53:39;;;;;;;24.85;15.82;;;14.20;99.90;;;;;;6152747;23;20354;-70
2021/08/31 00:56:11;;;;;;;22.10;14.75;;;14.20;99.90;;;;;;6126067;23;20021;-69
2021/08/31 00:58:38;;;;;;;22.00;15.10;;;14.20;99.90;;;;;;6126713;23;20024;-70
2021/08/31 01:01:04;;;;;;;19.42;14.48;;;14.20;99.90;;;;;;6152324;23;20085;-70
2021/08/31 01:03:30;;;;;;;21.20;14.50;;;14.20;99.90;;;;;;6126174;23;20048;-69
2021/08/31 01:05:57;;;;;;;20.63;14.02;;;14.20;99.90;;;;;;6126068;23;20052;-69
2021/08/31 01:08:23;;;;;;;24.33;14.57;;;14.20;99.90;;;;;;6101709;23;20009;-70
2021/08/31 01:10:49;;;;;;;20.40;13.82;;;14.20;99.90;;;;;;6125891;23;20519;-69
2021/08/31 01:13:15;;;;;;;22.45;15.60;;;14.10;99.90;;;;;;6102203;23;20337;-70
2021/08/31 01:15:43;;;;;;;26.90;15.82;;;14.10;99.90;;;;;;6152413;23;20045;-70
2021/08/31 01:18:21;;;;;;;22.13;15.20;;;14.10;99.90;;;;;;6152513;23;20307;-70
2021/08/31 01:20:55;;;;;;;19.55;13.95;;;14.10;99.90;;;;;;6125863;23;20024;-70
2021/08/31 01:23:22;;;;;;;21.60;14.73;;;14.10;99.90;;;;;;6126064;23;20017;-70
2021/08/31 01:25:48;;;;;;;18.80;14.27;;;14.00;99.90;;;;;;6125926;23;20468;-70
2021/08/31 01:28:16;;;;;;;20.05;14.82;;;14.00;99.90;;;;;;6126019;23;20017;-70
2021/08/31 01:30:43;;;;;;;21.23;13.82;;;14.00;99.90;;;;;;6101828;23;20089;-70
2021/08/31 01:33:10;;;;;;;20.15;14.90;;;14.00;99.90;;;;;;6125941;23;20088;-70
2021/08/31 01:35:35;;;;;;;18.38;13.88;;;14.00;99.90;;;;;;6150473;23;20020;-69
2021/08/31 01:38:01;;;;;;;19.70;15.05;;;14.00;99.90;;;;;;6125746;23;20430;-70
2021/08/31 01:40:27;;;;;;;18.80;14.63;;;13.90;99.90;;;;;;6127340;23;20418;-70
2021/08/31 01:42:52;;;;;;;17.55;13.85;;;13.90;99.90;;;;;;6127656;23;20349;-69
2021/08/31 01:45:18;;;;;;;18.70;13.02;;;13.90;99.90;;;;;;6154157;23;20084;-70
2021/08/31 01:47:43;;;;;;;16.27;12.93;;;13.90;99.90;;;;;;6127769;23;20018;-70
2021/08/31 01:50:09;;;;;;;16.75;13.40;;;13.90;99.90;;;;;;6127765;23;20044;-70
2021/08/31 01:52:36;;;;;;;20.08;14.85;;;13.90;99.90;;;;;;6127708;23;20021;-70
2021/08/31 01:55:05;;;;;;;20.98;14.25;;;14.00;99.90;;;;;;6127717;23;20064;-70
2021/08/31 01:57:31;;;;;;;22.80;14.68;;;13.90;99.90;;;;;;6152153;23;20010;-69
2021/08/31 01:59:56;;;;;;;23.08;15.27;;;14.00;99.90;;;;;;6127793;23;20460;-69
2021/08/31 02:02:22;;;;;;;20.50;13.55;;;14.00;99.90;;;;;;6103085;23;20048;-70
2021/08/31 02:04:48;;;;;;;24.83;14.57;;;14.00;99.90;;;;;;6127590;23;20024;-70
2021/08/31 02:07:13;;;;;;;23.08;14.43;;;14.00;99.90;;;;;;6127480;23;20024;-70
2021/08/31 02:09:39;;;;;;;20.63;13.88;;;13.90;99.90;;;;;;6127744;23;20381;-70
2021/08/31 02:12:05;;;;;;;22.45;14.30;;;14.00;99.90;;;;;;6127332;23;20010;-69
2021/08/31 02:14:30;;;;;;;23.80;14.10;;;13.90;99.90;;;;;;6127297;23;20037;-70
2021/08/31 02:16:56;;;;;;;25.77;13.95;;;14.00;99.90;;;;;;6127600;23;20009;-70
2021/08/31 02:19:21;;;;;;;22.45;14.07;;;14.00;99.90;;;;;;6127378;23;20088;-71
2021/08/31 02:21:47;;;;;;;20.55;13.73;;;14.00;99.90;;;;;;6153416;23;20017;-70
2021/08/31 02:24:12;;;;;;;21.33;14.48;;;14.10;99.90;;;;;;6103273;23;20013;-69
2021/08/31 02:26:38;;;;;;;22.45;13.52;;;14.10;99.90;;;;;;6153652;23;20208;-70
2021/08/31 02:29:04;;;;;;;21.50;13.70;;;14.10;99.90;;;;;;6153724;23;20074;-70
2021/08/31 02:31:29;;;;;;;22.83;13.63;;;14.20;99.90;;;;;;6153426;23;20017;-70
2021/08/31 02:33:55;;;;;;;18.90;12.70;;;14.20;99.90;;;;;;6126993;23;20010;-70
2021/08/31 02:36:21;;;;;;;20.08;12.65;;;14.20;99.90;;;;;;6127256;23;20105;-70
2021/08/31 02:38:46;;;;;;;24.63;13.75;;;14.20;99.90;;;;;;6153422;23;20022;-70
2021/08/31 02:41:12;;;;;;;20.25;12.18;;;14.20;99.90;;;;;;6127160;23;20028;-70
2021/08/31 02:43:38;;;;;;;26.88;13.10;;;14.20;99.90;;;;;;6126933;23;20017;-69
2021/08/31 02:46:03;;;;;;;21.52;12.27;;;14.20;99.90;;;;;;6127056;23;20009;-70
2021/08/31 02:48:29;;;;;;;18.17;12.85;;;14.20;99.90;;;;;;6127016;23;20013;-70
2021/08/31 02:50:54;;;;;;;24.90;13.35;;;14.10;99.90;;;;;;6126660;23;20025;-70
2021/08/31 02:53:20;;;;;;;23.50;12.68;;;14.10;99.90;;;;;;6126968;23;20024;-70
2021/08/31 02:55:46;;;;;;;19.55;11.43;;;14.10;99.90;;;;;;6127004;23;20404;-70
2021/08/31 02:58:11;;;;;;;16.33;11.48;;;14.10;99.90;;;;;;6126882;23;20014;-70
2021/08/31 03:00:41;;;;;;;21.15;11.82;;;14.10;99.90;;;;;;6102562;23;20022;-70
2021/08/31 03:03:07;;;;;;;21.08;11.90;;;14.10;99.90;;;;;;6151410;23;20013;-70
2021/08/31 03:05:33;;;;;;;22.75;12.40;;;14.00;99.90;;;;;;6126915;23;20040;-70
2021/08/31 03:07:58;;;;;;;19.88;11.68;;;14.00;99.90;;;;;;6153195;23;20017;-69
2021/08/31 03:10:24;;;;;;;25.70;12.65;;;14.00;99.90;;;;;;6126764;23;20091;-70
2021/08/31 03:12:49;;;;;;;18.50;11.85;;;14.00;99.90;;;;;;6126701;23;20333;-70
2021/08/31 03:15:15;;;;;;;21.88;12.15;;;14.00;99.90;;;;;;6126800;23;20017;-70
2021/08/31 03:17:41;;;;;;;22.05;12.25;;;14.00;99.90;;;;;;6126737;23;20025;-70
2021/08/31 03:20:07;;;;;;;23.85;12.70;;;14.00;99.90;;;;;;6126774;23;20025;-70
2021/08/31 03:22:33;;;;;;;25.05;12.75;;;14.00;99.90;;;;;;6126712;23;20018;-70
2021/08/31 03:24:58;;;;;;;24.02;12.13;;;14.00;99.90;;;;;;6126686;23;20374;-70
2021/08/31 03:27:24;;;;;;;22.67;12.98;;;14.00;99.90;;;;;;6153235;23;20020;-71
2021/08/31 03:29:49;;;;;;;21.70;11.70;;;13.90;99.90;;;;;;6126521;23;20068;-71
2021/08/31 03:32:15;;;;;;;21.70;13.20;;;14.00;99.90;;;;;;6102204;23;20064;-71
2021/08/31 03:34:40;;;;;;;21.90;13.10;;;13.90;99.90;;;;;;6153048;23;20056;-71
2021/08/31 03:37:06;;;;;;;24.88;13.75;;;14.00;99.90;;;;;;6153093;23;20472;-71
2021/08/31 03:39:31;;;;;;;26.17;13.23;;;14.00;99.90;;;;;;6152665;23;20018;-71
2021/08/31 03:41:57;;;;;;;23.80;13.35;;;14.00;99.90;;;;;;6153124;23;20030;-71
2021/08/31 03:44:23;;;;;;;21.95;12.80;;;14.10;99.90;;;;;;6126374;23;20019;-72
2021/08/31 03:46:48;;;;;;;24.00;13.68;;;14.10;99.90;;;;;;6153051;23;20025;-71
2021/08/31 03:49:14;;;;;;;25.30;13.30;;;14.20;99.90;;;;;;6101864;23;20021;-71
2021/08/31 03:51:39;;;;;;;22.52;12.30;;;14.20;99.90;;;;;;6126335;23;20349;-71
2021/08/31 03:54:05;;;;;;;26.00;14.00;;;14.20;99.90;;;;;;6126425;23;20026;-71
2021/08/31 03:56:30;;;;;;;25.38;14.55;;;14.30;99.90;;;;;;6126674;23;20025;-72
2021/08/31 03:58:56;;;;;;;22.38;12.88;;;14.30;99.90;;;;;;6126358;23;20021;-72
2021/08/31 04:01:21;;;;;;;25.77;13.95;;;14.30;99.90;;;;;;6101913;23;20013;-72
2021/08/31 04:03:47;;;;;;;20.10;13.55;;;14.40;99.90;;;;;;6152371;23;20021;-72
2021/08/31 04:06:12;;;;;;;22.65;13.52;;;14.40;99.90;;;;;;6102166;23;20397;-71
2021/08/31 04:08:38;;;;;;;23.25;13.10;;;14.40;99.90;;;;;;6152721;23;20059;-72
2021/08/31 04:11:04;;;;;;;24.08;14.57;;;14.50;99.90;;;;;;6126278;23;20024;-72
2021/08/31 04:13:30;;;;;;;21.55;13.25;;;14.60;99.90;;;;;;6126360;23;20071;-72
2021/08/31 04:15:56;;;;;;;23.13;13.38;;;14.60;99.90;;;;;;6152409;23;20017;-71
2021/08/31 04:18:21;;;;;;;26.30;15.23;;;14.70;99.90;;;;;;6152516;23;20024;-72
2021/08/31 04:20:47;;;;;;;24.10;14.43;;;14.70;99.90;;;;;;6126144;23;20048;-72
2021/08/31 04:23:13;;;;;;;21.15;13.65;;;14.80;99.90;;;;;;6152812;23;20045;-71
2021/08/31 04:25:39;;;;;;;26.30;15.75;;;14.80;99.90;;;;;;6152611;23;20021;-71
2021/08/31 04:28:05;;;;;;;25.90;15.57;;;14.80;99.90;;;;;;6126193;23;20445;-72
2021/08/31 04:30:30;;;;;;;24.80;14.48;;;14.90;99.90;;;;;;6152643;23;20056;-71
2021/08/31 04:32:57;;;;;;;18.40;12.68;;;14.90;99.90;;;;;;6152660;23;20013;-71
2021/08/31 04:35:23;;;;;;;25.08;14.13;;;15.00;99.90;;;;;;6126236;23;20445;-72
2021/08/31 04:37:49;;;;;;;20.13;14.00;;;15.00;99.90;;;;;;6101893;23;20017;-71
2021/08/31 04:40:14;;;;;;;27.25;15.50;;;15.10;99.90;;;;;;6126368;23;20024;-71
2021/08/31 04:42:40;;;;;;;26.48;13.82;;;15.10;99.90;;;;;;6152675;23;20013;-71
2021/08/31 04:45:06;;;;;;;27.33;16.00;;;15.10;99.90;;;;;;6125840;23;20373;-71
2021/08/31 04:47:32;;;;;;;22.77;15.05;;;15.10;99.90;;;;;;6126065;23;20060;-71
2021/08/31 04:49:57;;;;;;;26.55;15.52;;;15.10;99.90;;;;;;6152011;23;20021;-71
2021/08/31 04:52:23;;;;;;;23.15;13.23;;;15.10;99.90;;;;;;6105811;23;20073;-71
2021/08/31 04:54:48;;;;;;;25.88;15.50;;;15.20;99.90;;;;;;6096077;23;20057;-71
2021/08/31 04:57:14;;;;;;;21.42;14.48;;;15.20;99.90;;;;;;6072500;23;20028;-71
2021/08/31 04:59:39;;;;;;;23.40;15.10;;;15.20;99.90;;;;;;6096679;23;20018;-72
2021/08/31 05:02:05;;;;;;;25.23;15.43;;;15.30;99.90;;;;;;6122758;23;20465;-69
2021/08/31 05:04:32;;;;;;;27.77;14.02;;;15.40;99.90;;;;;;6072686;23;20014;-74
2021/08/31 05:06:57;;;;;;;27.92;15.18;;;15.40;99.90;;;;;;6097221;23;20163;-74
2021/08/31 05:09:23;;;;;;;21.88;13.43;;;15.40;99.90;;;;;;6096563;23;20337;-75
2021/08/31 05:11:49;;;;;;;20.52;13.38;;;15.50;99.90;;;;;;6096861;23;20501;-74
2021/08/31 05:14:14;;;;;;;22.42;14.38;;;15.50;99.90;;;;;;6097268;23;20434;-74
2021/08/31 05:16:40;;;;;;;25.95;15.02;;;15.60;99.90;;;;;;6098621;23;20025;-74
2021/08/31 05:19:06;;;;;;;21.42;14.15;;;15.50;99.90;;;;;;6098500;23;20033;-75
2021/08/31 05:21:31;;;;;;;27.10;14.65;;;15.60;99.90;;;;;;6098457;23;20014;-74
2021/08/31 05:23:58;;;;;;;20.27;13.18;;;15.60;99.90;;;;;;6098525;23;20375;-74
2021/08/31 05:26:23;;;;;;;21.80;13.60;;;15.70;99.90;;;;;;6074369;23;20018;-74
2021/08/31 05:28:49;;;;;;;25.65;13.93;;;15.70;99.90;;;;;;6098324;23;20025;-75
2021/08/31 05:31:15;;;;;;;21.17;13.70;;;15.70;99.90;;;;;;6098448;23;20085;-75
2021/08/31 05:33:40;;;;;;;22.55;14.05;;;15.60;99.90;;;;;;6098313;23;20081;-75
2021/08/31 05:36:06;;;;;;;21.08;12.57;;;15.70;99.90;;;;;;6098251;23;20024;-74
2021/08/31 05:38:32;;;;;;;26.23;12.65;;;15.70;99.90;;;;;;6098684;23;20040;-74
2021/08/31 05:40:57;;;;;;;26.23;12.80;;;15.70;99.90;;;;;;6098381;23;20032;-75
2021/08/31 05:43:23;;;;;;;26.00;13.80;;;15.70;99.90;;;;;;6098373;23;20024;-75
2021/08/31 05:45:48;;;;;;;22.55;12.00;;;15.70;99.90;;;;;;6098300;23;20097;-74
2021/08/31 05:48:14;;;;;;;19.48;11.18;;;16.00;99.90;;;;;;6098408;23;20021;-75
2021/08/31 05:50:40;;;;;;;19.30;9.63;;;16.80;99.90;;;;;;6074032;23;20049;-74
2021/08/31 05:53:05;;;;;;;13.60;10.15;;;17.70;99.90;;;;;;6098152;23;20018;-74
2021/08/31 05:55:31;;;;;;;17.10;9.38;;;18.60;99.90;;;;;;6098197;23;20022;-74
2021/08/31 05:57:56;;;;;;;13.48;8.20;;;19.30;99.90;;;;;;6098265;23;20444;-75
2021/08/31 06:00:22;;;;;;;12.30;8.68;;;20.10;99.90;;;;;;6098142;23;20018;-74
2021/08/31 06:02:47;;;;;;;13.48;7.88;;;20.70;99.90;;;;;;6074226;23;20438;-75
2021/08/31 06:05:13;;;;;;;13.63;7.13;;;21.40;99.90;;;;;;6098237;23;20013;-75
2021/08/31 06:07:40;;;;;;;10.60;6.85;;;22.00;99.90;;;;;;6097904;23;20014;-75
2021/08/31 06:10:06;;;;;;;11.95;7.45;;;22.50;99.90;;;;;;6124329;23;20088;-75
2021/08/31 06:12:31;;;;;;;10.70;6.25;;;23.00;99.90;;;;;;6097928;23;20323;-75
2021/08/31 06:14:57;;;;;;;11.80;6.75;;;23.40;99.90;;;;;;6074464;23;20021;-71
2021/08/31 06:17:23;;;;;;;11.25;5.95;;;23.50;99.90;;;;;;6097916;23;20009;-71
2021/08/31 06:19:49;;;;;;;14.20;6.35;;;23.90;99.90;;;;;;6098075;23;20137;-70
2021/08/31 06:22:15;;;;;;;11.98;5.95;;;24.30;99.90;;;;;;6124190;23;20036;-71
2021/08/31 06:24:41;;;;;;;11.30;6.07;;;24.00;99.90;;;;;;6097614;23;20346;-71
2021/08/31 06:27:06;;;;;;;11.18;5.82;;;24.30;99.90;;;;;;6073880;23;20022;-70
2021/08/31 06:29:32;;;;;;;13.10;6.00;;;24.30;99.90;;;;;;6124096;23;20042;-70
2021/08/31 06:31:57;;;;;;;10.35;5.60;;;24.40;99.90;;;;;;6073854;23;20429;-70
2021/08/31 06:34:23;;;;;;;13.57;5.80;;;25.10;99.90;;;;;;6073757;23;20022;-70
2021/08/31 06:36:49;;;;;;;10.20;5.60;;;25.60;99.90;;;;;;6124053;23;20013;-70
2021/08/31 06:39:15;;;;;;;9.93;5.55;;;25.40;98.90;;;;;;6073767;23;20018;-70
2021/08/31 06:41:41;;;;;;;10.93;5.20;;;26.10;98.60;;;;;;6097821;23;20024;-70
2021/08/31 06:44:06;;;;;;;10.27;5.20;;;25.80;98.00;;;;;;6097725;23;20361;-71
2021/08/31 06:46:32;;;;;;;11.73;5.80;;;25.70;98.10;;;;;;6124010;23;20021;-70
2021/08/31 06:48:57;;;;;;;11.60;5.15;;;26.00;97.20;;;;;;6097626;23;20022;-70
2021/08/31 06:51:23;;;;;;;10.38;5.30;;;26.30;97.70;;;;;;6097411;23;20053;-70
2021/08/31 06:53:49;;;;;;;8.98;4.75;;;26.60;96.10;;;;;;6097826;23;20014;-70
2021/08/31 06:56:14;;;;;;;11.27;5.43;;;26.90;95.60;;;;;;6097562;23;20458;-70
2021/08/31 06:58:40;;;;;;;9.05;4.95;;;26.60;95.50;;;;;;6097572;23;20010;-70
2021/08/31 07:01:06;;;;;;;9.38;4.78;;;26.80;95.10;;;;;;6097576;23;20160;-71
2021/08/31 07:03:31;;;;;;;9.38;4.43;;;27.10;96.10;;;;;;6097596;23;20377;-72
2021/08/31 07:05:57;;;;;;;9.90;5.05;;;26.90;94.90;;;;;;6073738;23;20080;-73
2021/08/31 07:08:22;;;;;;;9.15;4.88;;;27.20;94.10;;;;;;6073365;23;20013;-73
2021/08/31 07:10:48;;;;;;;10.05;4.70;;;27.10;95.20;;;;;;6097582;23;20021;-73
2021/08/31 07:13:15;;;;;;;8.48;4.95;;;27.30;95.10;;;;;;6123681;23;20045;-72
2021/08/31 07:15:41;;;;;;;10.60;5.20;;;27.40;93.10;;;;;;6097518;23;20014;-72
2021/08/31 07:18:07;;;;;;;7.93;5.40;;;26.70;94.70;;;;;;6097199;23;20025;-72
2021/08/31 07:20:33;;;;;;;12.20;5.75;;;24.60;98.30;;;;;;6097616;23;20021;-72
2021/08/31 07:22:58;;;;;;;8.45;5.60;;;24.20;99.40;;;;;;6097320;23;20018;-72
2021/08/31 07:25:24;;;;;;;6.30;4.80;;;23.10;99.90;;;;;;6097321;23;20020;-72
2021/08/31 07:27:50;;;;;;;8.30;5.45;;;23.30;99.90;;;;;;6097302;23;20014;-74
2021/08/31 07:30:15;;;;;;;12.05;6.53;;;23.20;99.90;;;;;;6123272;23;20028;-74
2021/08/31 07:32:41;;;;;;;7.93;6.22;;;23.20;99.80;;;;;;6123565;23;20025;-73
2021/08/31 07:35:07;;;;;;;11.38;6.47;;;22.00;99.90;;;;;;6097343;23;20101;-73
2021/08/31 07:37:33;;;;;;;10.55;6.25;;;21.80;99.90;;;;;;6123114;23;20130;-74
2021/08/31 07:39:59;;;;;;;11.52;5.85;;;21.70;99.90;;;;;;6097252;23;20431;-74
2021/08/31 07:42:24;;;;;;;10.75;5.68;;;22.30;99.90;;;;;;6073200;23;20104;-75
2021/08/31 07:44:51;;;;;;;11.75;5.63;;;22.80;99.90;;;;;;6097734;23;20026;-74
2021/08/31 07:47:17;;;;;;;10.32;5.72;;;22.90;99.90;;;;;;6097615;23;20093;-75
2021/08/31 07:49:43;;;;;;;7.95;5.72;;;22.50;99.90;;;;;;6097321;23;20025;-74
2021/08/31 07:52:09;;;;;;;8.63;5.93;;;22.00;99.90;;;;;;6096877;23;20018;-74
2021/08/31 07:54:34;;;;;;;10.20;5.70;;;21.80;99.90;;;;;;6097138;23;20060;-75
2021/08/31 07:57:00;;;;;;;9.05;5.63;;;21.50;99.90;;;;;;6097189;23;20084;-74
2021/08/31 07:59:26;;;;;;;8.48;5.47;;;21.30;99.90;;;;;;6097374;23;20025;-75
2021/08/31 08:01:51;;;;;;;8.93;4.57;;;21.00;99.90;;;;;;6073155;23;20465;-74
2021/08/31 08:04:17;;;;;;;11.13;5.18;;;20.70;99.90;;;;;;6097006;23;20020;-75
2021/08/31 08:06:42;;;;;;;7.95;4.88;;;20.10;99.90;;;;;;6097136;23;20465;-74
2021/08/31 08:09:08;;;;;;;6.47;4.63;;;20.30;99.90;;;;;;6096729;23;20350;-74
2021/08/31 08:11:34;;;;;;;11.68;4.72;;;20.40;99.90;;;;;;6097100;23;20045;-74
2021/08/31 08:14:00;;;;;;;10.75;4.70;;;20.40;99.90;;;;;;6096977;23;20014;-74
2021/08/31 08:16:25;;;;;;;10.25;4.72;;;20.20;99.90;;;;;;6123268;23;20006;-75
2021/08/31 08:18:51;;;;;;;9.15;4.40;;;20.10;99.90;;;;;;6097011;23;20018;-74
2021/08/31 08:21:17;;;;;;;10.30;4.20;;;20.30;99.90;;;;;;6097386;23;20444;-74
2021/08/31 08:23:43;;;;;;;9.38;3.97;;;20.20;99.90;;;;;;6096961;23;20079;-76
2021/08/31 08:26:09;;;;;;;9.77;4.07;;;20.10;99.90;;;;;;6096903;23;20035;-74
2021/08/31 08:28:36;;;;;;;9.25;4.07;;;19.90;99.90;;;;;;6096577;23;20014;-75
2021/08/31 08:31:03;;;;;;;8.85;4.40;;;20.20;99.90;;;;;;6096793;23;20025;-74
2021/08/31 08:33:31;;;;;;;9.32;3.97;;;20.30;99.90;;;;;;6096785;23;20098;-75
2021/08/31 08:35:57;;;;;;;9.55;4.38;;;20.50;99.90;;;;;;6096881;23;20022;-75
2021/08/31 08:38:23;;;;;;;11.88;4.40;;;20.20;99.90;;;;;;6096719;23;20025;-75
2021/08/31 08:40:48;;;;;;;10.75;4.57;;;20.10;99.90;;;;;;6097005;23;20346;-74
2021/08/31 08:43:14;;;;;;;10.15;4.30;;;19.80;99.90;;;;;;6072881;23;20092;-74
2021/08/31 08:45:49;;;;;;;8.13;3.90;;;19.90;99.90;;;;;;6072778;23;20021;-74
2021/08/31 08:48:27;;;;;;;9.43;4.03;;;20.20;99.90;;;;;;6073299;23;20021;-75
2021/08/31 08:50:57;;;;;;;10.70;4.32;;;20.10;99.90;;;;;;6100069;23;20022;-74
2021/08/31 08:53:25;;;;;;;8.77;4.10;;;20.20;99.90;;;;;;6128144;23;20014;-75
2021/08/31 08:55:52;;;;;;;13.40;4.63;;;20.30;99.90;;;;;;6128257;23;20006;-75
2021/08/31 08:58:17;;;;;;;10.50;4.82;;;20.60;99.90;;;;;;6128063;23;20041;-76
2021/08/31 09:00:58;;;;;;;10.02;4.00;;;20.60;99.90;;;;;;6128108;23;20014;-75
2021/08/31 09:03:24;;;;;;;12.48;4.47;;;20.40;99.90;;;;;;6128135;23;20052;-75
2021/08/31 09:06:10;;;;;;;12.63;4.25;;;20.40;99.90;;;;;;6127755;23;20017;-75
2021/08/31 09:08:39;;;;;;;9.35;4.20;;;20.20;99.90;;;;;;6127951;23;20449;-75
2021/08/31 09:11:20;;;;;;;12.30;3.88;;;20.40;99.90;;;;;;6127938;23;20045;-75
2021/08/31 09:13:47;;;;;;;11.48;4.32;;;20.40;99.90;;;;;;6127709;23;20029;-73
2021/08/31 09:16:29;;;;;;;12.70;4.55;;;20.40;99.90;;;;;;6154467;23;20009;-75
2021/08/31 09:18:57;;;;;;;9.40;4.07;;;20.70;99.90;;;;;;6127513;23;20060;-75
2021/08/31 09:21:28;;;;;;;11.32;3.85;;;20.60;99.90;;;;;;6127974;23;20010;-75
2021/08/31 09:23:56;;;;;;;12.48;4.18;;;20.50;99.90;;;;;;6127867;23;20068;-74
2021/08/31 09:26:34;;;;;;;10.80;4.10;;;20.80;99.90;;;;;;6128133;23;20449;-74
2021/08/31 09:29:10;;;;;;;10.10;4.13;;;20.80;99.90;;;;;;6127624;23;20456;-74
2021/08/31 09:31:56;;;;;;;9.98;3.95;;;21.40;99.90;;;;;;6128154;23;20518;-75
2021/08/31 09:34:43;;;;;;;10.65;4.53;;;21.80;99.90;;;;;;6127673;23;20017;-75
2021/08/31 09:37:49;;;;;;;10.63;4.68;;;21.80;99.90;;;;;;6128251;23;20024;-73
2021/08/31 09:40:17;;;;;;;11.70;4.50;;;21.90;99.90;;;;;;6034310;23;20023;-74
2021/08/31 09:42:54;;;;;;;9.60;3.90;;;21.70;99.90;;;;;;6010690;23;20015;-75
2021/08/31 09:45:30;;;;;;;9.00;3.95;;;21.80;99.90;;;;;;6090014;23;20017;-75
2021/08/31 09:47:57;;;;;;;9.95;4.10;;;22.00;99.90;;;;;;6127772;23;20092;-75
2021/08/31 09:50:36;;;;;;;8.73;4.05;;;22.10;99.90;;;;;;6102926;23;20025;-75
2021/08/31 09:53:03;;;;;;;10.25;4.00;;;21.90;99.90;;;;;;6127502;23;20013;-77
2021/08/31 09:55:29;;;;;;;9.43;4.00;;;21.70;99.90;;;;;;6127396;23;20017;-75
2021/08/31 09:58:22;;;;;;;12.30;4.22;;;21.60;99.90;;;;;;6103191;23;20014;-75
2021/08/31 10:00:50;;;;;;;13.38;4.45;;;21.60;99.90;;;;;;6122645;23;20017;-75
2021/08/31 10:03:16;;;;;;;10.85;4.25;;;21.20;99.90;;;;;;6103135;23;20018;-76
2021/08/31 10:05:43;;;;;;;10.60;4.40;;;21.10;99.90;;;;;;6127304;23;20018;-75
2021/08/31 10:08:10;;;;;;;12.50;4.88;;;21.10;99.90;;;;;;6127541;23;20337;-75
2021/08/31 10:10:37;;;;;;;11.65;4.53;;;21.20;99.90;;;;;;6127260;23;20333;-75
2021/08/31 10:13:08;;;;;;;9.77;4.20;;;21.10;99.90;;;;;;6127347;23;20009;-74
2021/08/31 10:15:39;;;;;;;12.18;4.28;;;21.10;99.90;;;;;;6127383;23;20333;-75
2021/08/31 10:18:07;;;;;;;10.40;4.13;;;21.30;99.90;;;;;;6127465;23;20025;-75
2021/08/31 10:20:34;;;;;;;11.02;4.00;;;21.60;99.90;;;;;;6153663;23;20096;-74
2021/08/31 10:23:01;;;;;;;10.10;4.03;;;21.80;99.90;;;;;;6127371;23;20013;-76
2021/08/31 10:25:28;;;;;;;10.55;3.97;;;22.00;99.90;;;;;;6127205;23;20013;-74
2021/08/31 10:27:55;;;;;;;13.43;4.50;;;22.10;99.90;;;;;;6127182;23;20009;-74
2021/08/31 10:30:21;;;;;;;12.10;4.53;;;22.20;99.90;;;;;;6127151;23;20017;-75
2021/08/31 10:32:52;;;;;;;10.75;3.92;;;22.20;99.90;;;;;;6127272;23;20021;-75
2021/08/31 10:35:36;;;;;;;9.18;3.88;;;22.20;99.90;;;;;;6127076;23;20020;-75
2021/08/31 10:38:04;;;;;;;10.82;4.15;;;22.30;99.90;;;;;;6127721;23;20025;-75
2021/08/31 10:40:39;;;;;;;8.57;3.72;;;21.90;99.90;;;;;;6127109;23;20048;-75
2021/08/31 10:43:08;;;;;;;10.55;4.07;;;21.90;99.90;;;;;;6127215;23;20504;-75
2021/08/31 10:45:35;;;;;;;9.20;3.55;;;22.10;99.90;;;;;;6127099;23;20112;-75
2021/08/31 10:48:24;;;;;;;12.43;3.70;;;22.20;99.90;;;;;;6127104;23;20101;-75
2021/08/31 10:51:11;;;;;;;10.48;4.18;;;22.20;99.90;;;;;;6126584;23;20022;-75
2021/08/31 10:53:40;;;;;;;10.57;4.05;;;22.40;99.90;;;;;;6127017;23;20021;-74
2021/08/31 10:56:25;;;;;;;7.07;3.55;;;22.30;99.30;;;;;;6126864;23;20147;-75
2021/08/31 10:59:05;;;;;;;10.13;3.80;;;22.20;99.40;;;;;;6127029;23;20084;-75
2021/08/31 11:01:39;;;;;;;11.70;3.83;;;22.10;99.90;;;;;;6126777;23;20009;-76
2021/08/31 11:04:26;;;;;;;9.05;4.15;;;22.00;99.90;;;;;;6126867;23;20146;-75
2021/08/31 11:06:59;;;;;;;13.27;4.22;;;21.70;99.90;;;;;;6126961;23;20406;-62
2021/08/31 11:09:26;;;;;;;8.23;3.55;;;21.30;99.90;;;;;;6126790;23;20041;-63
2021/08/31 11:12:08;;;;;;;10.93;3.55;;;21.10;99.90;;;;;;6127062;23;20441;-62
2021/08/31 11:14:50;;;;;;;12.77;4.00;;;21.40;99.90;;;;;;6153283;23;20012;-62
2021/08/31 11:17:36;;;;;;;15.18;3.90;;;21.10;99.90;;;;;;6153245;23;20006;-62
2021/08/31 11:20:21;;;;;;;11.57;3.97;;;21.10;99.90;;;;;;6153264;23;20010;-62
2021/08/31 11:22:54;;;;;;;10.00;3.50;;;21.40;99.90;;;;;;6126425;23;20017;-62
2021/08/31 11:25:28;;;;;;;7.45;3.53;;;21.40;99.90;;;;;;6153211;23;20013;-63
2021/08/31 11:27:56;;;;;;;8.70;3.60;;;21.30;99.90;;;;;;6152962;23;20020;-63
2021/08/31 11:30:23;;;;;;;9.95;3.75;;;21.20;99.90;;;;;;6153166;23;20014;-63
2021/08/31 11:32:48;;;;;;;12.65;3.80;;;21.50;99.90;;;;;;6152964;23;20104;-64
2021/08/31 11:35:14;;;;;;;8.88;3.55;;;21.40;99.90;;;;;;6153218;23;20045;-64
2021/08/31 11:37:51;;;;;;;9.40;3.92;;;21.50;99.90;;;;;;6152758;23;20014;-64
2021/08/31 11:40:25;;;;;;;9.70;3.65;;;21.40;99.90;;;;;;6153189;23;20017;-63
2021/08/31 11:42:56;;;;;;;8.73;3.78;;;21.50;99.90;;;;;;6153092;23;20018;-63
2021/08/31 11:45:32;;;;;;;11.30;3.90;;;21.60;99.90;;;;;;6153041;23;20024;-63
2021/08/31 11:47:58;;;;;;;8.93;3.65;;;21.50;99.90;;;;;;6152935;23;20581;-63
2021/08/31 11:50:24;;;;;;;10.48;3.83;;;21.30;99.90;;;;;;6126320;23;20025;-63
2021/08/31 11:52:50;;;;;;;13.27;4.35;;;20.90;99.90;;;;;;6152822;23;20064;-64
2021/08/31 11:55:26;;;;;;;9.05;3.90;;;20.60;99.90;;;;;;6153021;23;20009;-64
2021/08/31 11:58:03;;;;;;;10.60;3.90;;;20.80;99.90;;;;;;6152425;23;20457;-64
2021/08/31 12:00:45;;;;;;;10.52;3.35;;;21.10;99.90;;;;;;6152961;23;20021;-63
2021/08/31 12:03:17;;;;;;;;;;;21.30;99.90;;;;;;6126858;23;20021;-63
2021/08/31 12:05:43;;;;;;;14.23;4.22;;;21.50;99.90;;;;;;6152935;23;19917;-63
2021/08/31 12:08:09;;;;;;;10.23;3.55;;;21.30;99.90;;;;;;6152292;23;20468;-63
2021/08/31 12:10:34;;;;;;;9.45;4.10;;;21.30;99.90;;;;;;6152796;23;20148;-63
2021/08/31 12:13:00;;;;;;;9.43;4.10;;;21.30;99.90;;;;;;6152665;23;20465;-63
2021/08/31 12:15:26;;;;;;;9.40;4.25;;;21.20;99.90;;;;;;6152730;23;20054;-63
2021/08/31 12:18:01;;;;;;;9.00;3.75;;;21.40;99.90;;;;;;6126151;23;20017;-64
2021/08/31 12:20:26;;;;;;;14.45;4.30;;;21.40;99.90;;;;;;6152782;23;20021;-64
2021/08/31 12:23:00;;;;;;;8.45;3.65;;;21.00;99.90;;;;;;6152291;23;20017;-63
2021/08/31 12:25:26;;;;;;;9.63;4.10;;;20.80;99.90;;;;;;6152768;23;20013;-63
2021/08/31 12:27:54;;;;;;;11.93;4.00;;;20.50;99.90;;;;;;6126021;23;20392;-63
2021/08/31 12:30:37;;;;;;;9.85;4.18;;;20.30;99.90;;;;;;6152688;23;20071;-63
2021/08/31 12:33:04;;;;;;;12.63;3.97;;;20.30;99.90;;;;;;6152377;23;20048;-63
2021/08/31 12:35:43;;;;;;;11.00;3.92;;;20.10;99.90;;;;;;6152660;23;20016;-64
2021/08/31 12:38:12;;;;;;;9.73;4.40;;;20.00;99.90;;;;;;6152652;23;20021;-63